Time;durP1;ratioP1;P1;durP2;ratioP2;P2;SDS_P1;SDS_P2;PMS_P1;PMS_P2;Temp;Humidity;BMP_temperature;BMP_pressure;BME280_temperature;BME280_humidity;BME280_pressure;Samples;Min_cycle;Max_cycle;Signal;HPM_P1;HPM_P2
2023/04/06 00:00:07;;;;;;;10.77;4.83;;;;;;;;;;5063515;28;20040;-85
2023/04/06 00:02:52;;;;;;;12.50;4.50;;;;;;;;;;5061055;28;20043;-85
2023/04/06 00:05:36;;;;;;;8.07;4.70;;;;;;;;;;5076208;28;20554;-85
2023/04/06 00:08:23;;;;;;;7.33;4.90;;;;;;;;;;5060454;28;20039;-84
2023/04/06 00:11:08;;;;;;;7.37;5.07;;;;;;;;;;5059914;28;20452;-85
2023/04/06 00:13:52;;;;;;;8.67;5.67;;;;;;;;;;5060092;28;20115;-85
2023/04/06 00:16:37;;;;;;;10.40;5.67;;;;;;;;;;5058841;28;20032;-85
2023/04/06 00:19:21;;;;;;;8.13;4.60;;;;;;;;;;5048566;28;20040;-85
2023/04/06 00:22:08;;;;;;;8.57;4.17;;;;;;;;;;5045747;28;20040;-84
2023/04/06 00:24:53;;;;;;;8.47;5.30;;;;;;;;;;5060036;28;20048;-85
2023/04/06 00:27:38;;;;;;;9.80;4.87;;;;;;;;;;5062118;28;20034;-84
2023/04/06 00:30:22;;;;;;;6.93;4.60;;;;;;;;;;5059018;28;20039;-85
2023/04/06 00:33:07;;;;;;;9.00;5.00;;;;;;;;;;5059903;28;20048;-85
2023/04/06 00:35:52;;;;;;;9.60;4.87;;;;;;;;;;5074450;28;20454;-85
2023/04/06 00:38:40;;;;;;;9.00;5.40;;;;;;;;;;5071178;28;20166;-85
2023/04/06 00:41:24;;;;;;;5.83;4.33;;;;;;;;;;5059754;28;20515;-85
2023/04/06 00:44:09;;;;;;;8.37;5.33;;;;;;;;;;5059295;28;20047;-85
2023/04/06 00:46:53;;;;;;;9.83;4.60;;;;;;;;;;5051012;28;20116;-85
2023/04/06 00:49:37;;;;;;;8.60;5.23;;;;;;;;;;5057830;28;20086;-85
2023/04/06 00:52:22;;;;;;;12.47;4.70;;;;;;;;;;5059042;28;20630;-86
2023/04/06 00:55:07;;;;;;;8.40;5.50;;;;;;;;;;5076299;28;20066;-85
2023/04/06 00:57:52;;;;;;;9.03;5.57;;;;;;;;;;5094092;28;20061;-85
2023/04/06 01:00:37;;;;;;;8.27;5.40;;;;;;;;;;5095766;28;20157;-86
2023/04/06 01:03:21;;;;;;;8.53;4.87;;;;;;;;;;5081021;28;20050;-85
2023/04/06 01:06:06;;;;;;;6.93;4.33;;;;;;;;;;5094581;28;20447;-86
2023/04/06 01:08:51;;;;;;;6.60;4.30;;;;;;;;;;5065112;28;20081;-85
2023/04/06 01:11:36;;;;;;;6.13;4.70;;;;;;;;;;5094942;28;20081;-85
2023/04/06 01:14:21;;;;;;;7.67;5.00;;;;;;;;;;5079158;28;20038;-85
2023/04/06 01:17:05;;;;;;;8.80;5.00;;;;;;;;;;5094586;28;20088;-87
2023/04/06 01:19:53;;;;;;;8.00;4.70;;;;;;;;;;5072493;28;20039;-85
2023/04/06 01:22:38;;;;;;;8.13;5.07;;;;;;;;;;5066800;28;20416;-86
2023/04/06 01:25:23;;;;;;;11.03;4.73;;;;;;;;;;5093852;28;20043;-85
2023/04/06 01:28:07;;;;;;;9.00;4.70;;;;;;;;;;5093834;28;20050;-87
2023/04/06 01:30:53;;;;;;;8.90;5.40;;;;;;;;;;5079156;28;20081;-85
2023/04/06 01:33:38;;;;;;;6.33;4.23;;;;;;;;;;5094744;28;20051;-84
2023/04/06 01:36:23;;;;;;;8.40;4.67;;;;;;;;;;5077717;28;20039;-85
2023/04/06 01:39:07;;;;;;;8.53;4.37;;;;;;;;;;5092204;28;20484;-87
2023/04/06 01:41:52;;;;;;;8.53;5.00;;;;;;;;;;5065125;28;20039;-85
2023/04/06 01:44:36;;;;;;;7.83;4.90;;;;;;;;;;5065540;28;20404;-85
2023/04/06 01:47:21;;;;;;;9.87;4.73;;;;;;;;;;5078523;28;20407;-85
2023/04/06 01:50:07;;;;;;;8.90;5.97;;;;;;;;;;5092765;28;20085;-85
2023/04/06 01:52:51;;;;;;;7.03;4.90;;;;;;;;;;5094468;28;20031;-85
2023/04/06 01:55:36;;;;;;;9.83;4.87;;;;;;;;;;5072566;28;20101;-85
2023/04/06 01:58:20;;;;;;;6.77;4.80;;;;;;;;;;5060244;28;20442;-85
2023/04/06 02:01:05;;;;;;;12.40;4.23;;;;;;;;;;5053741;28;20421;-85
2023/04/06 02:03:50;;;;;;;7.60;4.87;;;;;;;;;;5071095;28;20419;-85
2023/04/06 02:06:35;;;;;;;5.90;4.00;;;;;;;;;;5070703;28;20072;-85
2023/04/06 02:09:20;;;;;;;6.97;4.27;;;;;;;;;;5070889;28;20364;-86
2023/04/06 02:12:05;;;;;;;9.33;4.93;;;;;;;;;;5071127;28;20511;-85
2023/04/06 02:14:50;;;;;;;8.77;5.43;;;;;;;;;;5072097;28;20102;-86
2023/04/06 02:17:34;;;;;;;6.70;4.67;;;;;;;;;;5056612;28;20079;-85
2023/04/06 02:20:19;;;;;;;9.37;5.37;;;;;;;;;;5067402;28;20078;-85
2023/04/06 02:23:04;;;;;;;8.73;5.00;;;;;;;;;;5073368;28;20071;-85
2023/04/06 02:25:48;;;;;;;6.77;4.37;;;;;;;;;;5073366;28;20036;-85
2023/04/06 02:28:33;;;;;;;7.37;4.77;;;;;;;;;;5071443;28;20039;-86
2023/04/06 02:31:17;;;;;;;8.40;5.00;;;;;;;;;;5070292;28;20044;-85
2023/04/06 02:34:02;;;;;;;7.03;4.80;;;;;;;;;;5058340;28;20039;-85
2023/04/06 02:36:47;;;;;;;7.37;4.87;;;;;;;;;;5073218;28;20357;-85
2023/04/06 02:39:32;;;;;;;8.73;5.00;;;;;;;;;;5071228;28;20082;-85
2023/04/06 02:42:16;;;;;;;6.77;4.77;;;;;;;;;;5070271;28;20067;-87
2023/04/06 02:45:01;;;;;;;8.03;4.83;;;;;;;;;;5072489;28;20083;-85
2023/04/06 02:47:46;;;;;;;8.27;4.87;;;;;;;;;;5071835;28;20040;-85
2023/04/06 02:50:31;;;;;;;7.13;5.07;;;;;;;;;;5071781;28;20030;-86
2023/04/06 02:53:15;;;;;;;8.90;5.27;;;;;;;;;;5060705;28;20076;-85
2023/04/06 02:56:00;;;;;;;7.90;5.37;;;;;;;;;;5090529;28;20075;-85
2023/04/06 02:58:45;;;;;;;9.73;4.80;;;;;;;;;;5093576;28;20503;-85
2023/04/06 03:01:30;;;;;;;9.77;5.40;;;;;;;;;;5061227;28;20097;-84
2023/04/06 03:04:14;;;;;;;6.73;4.90;;;;;;;;;;5081644;28;20074;-85
2023/04/06 03:06:59;;;;;;;10.77;4.90;;;;;;;;;;5077879;28;20136;-85
2023/04/06 03:09:43;;;;;;;9.43;4.80;;;;;;;;;;5077733;28;20042;-85
2023/04/06 03:12:28;;;;;;;6.97;4.70;;;;;;;;;;5076557;28;20035;-85
2023/04/06 03:15:12;;;;;;;8.80;5.77;;;;;;;;;;5076705;28;20092;-84
2023/04/06 03:17:57;;;;;;;8.37;5.07;;;;;;;;;;5076708;28;20034;-84
2023/04/06 03:20:42;;;;;;;12.70;5.40;;;;;;;;;;5091348;28;20077;-84
2023/04/06 03:23:26;;;;;;;9.90;5.63;;;;;;;;;;5089651;28;20403;-85
2023/04/06 03:26:11;;;;;;;6.83;4.93;;;;;;;;;;5076757;28;20075;-85
2023/04/06 03:28:55;;;;;;;8.73;5.40;;;;;;;;;;5091981;28;20089;-85
2023/04/06 03:31:40;;;;;;;8.33;5.83;;;;;;;;;;5091548;28;20137;-84
2023/04/06 03:34:25;;;;;;;9.67;5.70;;;;;;;;;;5073908;28;20047;-85
2023/04/06 03:37:09;;;;;;;7.67;5.30;;;;;;;;;;5092114;28;20047;-86
2023/04/06 03:39:54;;;;;;;9.70;5.70;;;;;;;;;;5091958;28;20038;-85
2023/04/06 03:42:41;;;;;;;8.27;5.20;;;;;;;;;;5058095;28;20074;-85
2023/04/06 03:45:26;;;;;;;8.17;5.63;;;;;;;;;;5074583;28;20042;-85
2023/04/06 03:48:11;;;;;;;9.77;5.60;;;;;;;;;;5061898;28;20117;-86
2023/04/06 03:50:55;;;;;;;8.73;5.83;;;;;;;;;;5091604;28;20047;-86
2023/04/06 03:53:40;;;;;;;8.97;5.13;;;;;;;;;;5075360;28;20114;-85
2023/04/06 03:56:27;;;;;;;8.63;6.00;;;;;;;;;;5071950;28;20036;-86
2023/04/06 03:59:12;;;;;;;10.27;5.70;;;;;;;;;;5056422;28;20469;-85
2023/04/06 04:01:56;;;;;;;13.63;6.27;;;;;;;;;;5078984;28;20093;-85
2023/04/06 04:04:41;;;;;;;9.03;5.80;;;;;;;;;;5072811;28;20040;-85
2023/04/06 04:07:25;;;;;;;11.23;6.00;;;;;;;;;;5094454;28;20123;-88
2023/04/06 04:10:10;;;;;;;9.80;6.20;;;;;;;;;;5094259;28;20035;-85
2023/04/06 04:12:55;;;;;;;8.93;5.63;;;;;;;;;;5094754;28;20047;-85
2023/04/06 04:15:40;;;;;;;8.27;5.40;;;;;;;;;;5078509;28;20544;-85
2023/04/06 04:18:24;;;;;;;9.00;5.50;;;;;;;;;;5094465;28;20085;-85
2023/04/06 04:21:09;;;;;;;8.83;5.80;;;;;;;;;;5094702;28;20528;-85
2023/04/06 04:23:54;;;;;;;9.57;6.27;;;;;;;;;;5079487;28;20048;-85
2023/04/06 04:26:39;;;;;;;7.70;5.13;;;;;;;;;;5077148;28;20086;-86
2023/04/06 04:29:24;;;;;;;9.33;5.37;;;;;;;;;;5079281;28;20112;-85
2023/04/06 04:32:08;;;;;;;10.10;6.37;;;;;;;;;;5094178;28;20505;-85
2023/04/06 04:34:53;;;;;;;10.87;6.33;;;;;;;;;;5078633;28;20039;-85
2023/04/06 04:37:38;;;;;;;9.63;6.03;;;;;;;;;;5064527;28;20454;-85
2023/04/06 04:40:22;;;;;;;11.53;5.93;;;;;;;;;;5079663;28;20044;-85
2023/04/06 04:43:07;;;;;;;8.33;5.63;;;;;;;;;;5094652;28;20492;-85
2023/04/06 04:45:52;;;;;;;11.33;6.20;;;;;;;;;;5078164;28;20038;-85
2023/04/06 04:48:37;;;;;;;8.53;5.50;;;;;;;;;;5072158;28;20498;-85
2023/04/06 04:51:21;;;;;;;8.93;6.40;;;;;;;;;;5080153;28;20035;-85
2023/04/06 04:54:06;;;;;;;14.77;6.57;;;;;;;;;;5095616;28;20093;-85
2023/04/06 04:56:51;;;;;;;9.57;6.30;;;;;;;;;;5094535;28;20638;-85
2023/04/06 04:59:36;;;;;;;8.20;5.93;;;;;;;;;;5074143;28;20051;-85
2023/04/06 05:02:20;;;;;;;13.33;7.03;;;;;;;;;;5095059;28;20078;-85
2023/04/06 05:05:05;;;;;;;12.63;7.33;;;;;;;;;;5079721;28;20077;-85
2023/04/06 05:07:50;;;;;;;8.40;5.80;;;;;;;;;;5079328;28;20541;-85
2023/04/06 05:10:37;;;;;;;10.53;6.47;;;;;;;;;;5079276;28;20560;-85
2023/04/06 05:13:22;;;;;;;11.60;7.10;;;;;;;;;;5079194;28;20097;-85
2023/04/06 05:16:07;;;;;;;10.20;6.67;;;;;;;;;;5074361;28;20507;-85
2023/04/06 05:18:52;;;;;;;11.37;6.70;;;;;;;;;;5093871;28;20039;-85
2023/04/06 05:21:39;;;;;;;10.10;6.80;;;;;;;;;;5079124;28;20095;-86
2023/04/06 05:24:25;;;;;;;13.27;7.40;;;;;;;;;;5080668;28;20043;-85
2023/04/06 05:27:09;;;;;;;11.83;6.63;;;;;;;;;;5093548;28;20118;-85
2023/04/06 05:29:55;;;;;;;10.93;7.37;;;;;;;;;;5079658;28;20283;-85
2023/04/06 05:32:39;;;;;;;9.37;6.37;;;;;;;;;;5059764;28;20413;-85
2023/04/06 05:35:24;;;;;;;9.70;6.83;;;;;;;;;;5060863;28;20047;-85
2023/04/06 05:38:10;;;;;;;10.47;6.63;;;;;;;;;;5069172;28;20511;-85
2023/04/06 05:40:57;;;;;;;13.20;7.20;;;;;;;;;;5076215;28;20081;-85
2023/04/06 05:43:42;;;;;;;10.17;6.63;;;;;;;;;;5076672;28;20119;-85
2023/04/06 05:46:26;;;;;;;16.67;7.13;;;;;;;;;;5077267;28;20063;-85
2023/04/06 05:49:11;;;;;;;12.37;6.93;;;;;;;;;;5075975;28;20043;-85
2023/04/06 05:51:55;;;;;;;12.60;6.80;;;;;;;;;;5054417;28;20067;-86
2023/04/06 05:54:40;;;;;;;10.97;6.27;;;;;;;;;;5092284;28;20054;-86
2023/04/06 05:57:27;;;;;;;9.87;6.90;;;;;;;;;;5065954;28;20404;-86
2023/04/06 06:00:12;;;;;;;12.17;7.27;;;;;;;;;;5072369;28;20039;-86
2023/04/06 06:02:57;;;;;;;12.77;7.80;;;;;;;;;;5095404;28;20605;-86
2023/04/06 06:05:42;;;;;;;9.93;6.53;;;;;;;;;;5077109;28;20127;-87
2023/04/06 06:08:26;;;;;;;12.40;6.87;;;;;;;;;;5084591;28;20494;-86
2023/04/06 06:11:11;;;;;;;11.43;7.80;;;;;;;;;;5086901;28;20035;-86
2023/04/06 06:13:56;;;;;;;12.43;7.23;;;;;;;;;;5076582;28;20039;-86
2023/04/06 06:16:40;;;;;;;14.53;7.03;;;;;;;;;;5076390;28;20400;-87
2023/04/06 06:19:25;;;;;;;12.87;7.90;;;;;;;;;;5076746;28;20043;-86
2023/04/06 06:22:10;;;;;;;13.77;7.57;;;;;;;;;;5092060;28;20043;-86
2023/04/06 06:24:55;;;;;;;12.80;7.17;;;;;;;;;;5067305;28;20408;-86
2023/04/06 06:27:39;;;;;;;10.23;6.70;;;;;;;;;;5079440;28;20118;-87
2023/04/06 06:30:24;;;;;;;13.07;7.43;;;;;;;;;;5091947;28;20038;-86
2023/04/06 06:33:08;;;;;;;12.40;7.30;;;;;;;;;;5091766;28;20507;-86
2023/04/06 06:35:53;;;;;;;12.93;8.13;;;;;;;;;;5075304;28;20035;-86
2023/04/06 06:38:38;;;;;;;13.37;7.57;;;;;;;;;;5091693;28;20031;-85
2023/04/06 06:41:23;;;;;;;15.10;7.87;;;;;;;;;;5075535;28;20510;-86
2023/04/06 06:44:08;;;;;;;12.27;7.30;;;;;;;;;;5088046;28;20034;-86
2023/04/06 06:46:53;;;;;;;15.40;7.17;;;;;;;;;;5075843;28;20054;-86
2023/04/06 06:49:37;;;;;;;12.03;7.50;;;;;;;;;;5072911;28;20082;-86
2023/04/06 06:52:23;;;;;;;10.77;7.23;;;;;;;;;;5060709;28;20498;-86
2023/04/06 06:55:09;;;;;;;12.47;7.57;;;;;;;;;;5060119;28;20062;-86
2023/04/06 06:57:54;;;;;;;12.57;7.20;;;;;;;;;;5073877;28;20041;-85
2023/04/06 07:00:38;;;;;;;10.83;6.77;;;;;;;;;;5091604;28;20400;-86
2023/04/06 07:03:23;;;;;;;13.00;6.75;;;;;;;;;;5075847;28;20078;-85
2023/04/06 07:06:08;;;;;;;11.75;8.43;;;;;;;;;;5070714;28;20875;-85
2023/04/06 07:08:53;;;;;;;11.60;7.18;;;;;;;;;;5086577;28;20058;-86
2023/04/06 07:11:37;;;;;;;13.02;7.95;;;;;;;;;;5066897;28;20036;-85
2023/04/06 07:14:22;;;;;;;11.75;6.72;;;;;;;;;;5091192;28;20157;-85
2023/04/06 07:17:06;;;;;;;12.60;7.68;;;;;;;;;;5060066;28;20047;-85
2023/04/06 07:19:51;;;;;;;13.90;6.45;;;;;;;;;;5060348;28;20094;-86
2023/04/06 07:22:35;;;;;;;12.70;6.88;;;;;;;;;;5086881;28;20047;-85
2023/04/06 07:25:20;;;;;;;13.88;6.97;;;;;;;;;;5091028;28;20046;-85
2023/04/06 07:28:04;;;;;;;14.43;8.18;;;;;;;;;;5055205;28;20054;-85
2023/04/06 07:30:49;;;;;;;14.90;7.00;;;;;;;;;;5061045;28;20081;-87
2023/04/06 07:33:34;;;;;;;10.60;7.35;;;;;;;;;;5089722;28;20042;-86
2023/04/06 07:36:19;;;;;;;13.85;7.45;;;;;;;;;;5062147;28;20603;-86
2023/04/06 07:39:03;;;;;;;12.50;7.63;;;;;;;;;;5075007;28;20077;-85
2023/04/06 07:41:48;;;;;;;12.20;7.57;;;;;;;;;;5060327;28;20061;-85
2023/04/06 07:44:32;;;;;;;12.35;7.30;;;;;;;;;;5081633;28;20047;-85
2023/04/06 07:47:17;;;;;;;13.75;7.32;;;;;;;;;;5079167;28;20047;-85
2023/04/06 07:50:01;;;;;;;12.35;7.55;;;;;;;;;;5079776;28;20450;-85
2023/04/06 07:52:46;;;;;;;16.20;8.23;;;;;;;;;;5096209;28;20500;-85
2023/04/06 07:55:34;;;;;;;13.48;7.00;;;;;;;;;;5073825;28;20052;-87
2023/04/06 07:58:18;;;;;;;11.85;7.45;;;;;;;;;;5066320;28;20047;-84
2023/04/06 08:01:05;;;;;;;16.80;7.45;;;;;;;;;;5068214;28;20145;-86
2023/04/06 08:03:50;;;;;;;13.10;7.75;;;;;;;;;;5060658;28;20044;-83
2023/04/06 08:06:36;;;;;;;11.27;7.57;;;;;;;;;;5074631;28;20549;-83
2023/04/06 08:09:21;;;;;;;11.43;7.00;;;;;;;;;;5074362;28;20082;-83
2023/04/06 08:12:05;;;;;;;13.20;7.60;;;;;;;;;;5072219;28;20114;-85
2023/04/06 08:14:50;;;;;;;13.80;7.97;;;;;;;;;;5070080;28;20503;-85
2023/04/06 08:17:34;;;;;;;12.25;7.68;;;;;;;;;;5065108;28;20097;-86
2023/04/06 08:20:19;;;;;;;10.73;7.13;;;;;;;;;;5071410;28;20466;-85
2023/04/06 08:23:09;;;;;;;9.68;7.18;;;;;;;;;;5074595;28;20519;-85
2023/04/06 08:25:56;;;;;;;17.35;8.30;;;;;;;;;;5073932;28;20112;-83
2023/04/06 08:28:41;;;;;;;12.95;7.53;;;;;;;;;;5073790;28;20102;-83
2023/04/06 08:31:26;;;;;;;11.88;7.63;;;;;;;;;;5072816;28;20393;-83
2023/04/06 08:34:10;;;;;;;10.50;7.50;;;;;;;;;;5073764;28;20442;-83
2023/04/06 08:36:55;;;;;;;11.57;7.65;;;;;;;;;;5073720;28;20047;-83
2023/04/06 08:39:40;;;;;;;17.83;8.23;;;;;;;;;;5072059;28;20051;-82
2023/04/06 08:42:26;;;;;;;12.15;6.90;;;;;;;;;;5073250;28;20523;-82
2023/04/06 08:45:11;;;;;;;12.57;7.65;;;;;;;;;;5077754;28;20047;-82
2023/04/06 08:47:58;;;;;;;11.35;7.63;;;;;;;;;;5061193;28;20055;-83
2023/04/06 08:50:43;;;;;;;11.60;7.75;;;;;;;;;;5074180;28;20043;-83
2023/04/06 08:53:28;;;;;;;11.82;7.35;;;;;;;;;;5073606;28;20047;-83
2023/04/06 08:56:13;;;;;;;11.15;7.28;;;;;;;;;;5044027;28;20070;-83
2023/04/06 08:58:58;;;;;;;13.32;7.35;;;;;;;;;;5071674;28;20086;-83
2023/04/06 09:01:45;;;;;;;10.57;6.90;;;;;;;;;;5072524;28;20122;-85
2023/04/06 09:04:38;;;;;;;13.73;8.05;;;;;;;;;;5066226;28;20039;-82
2023/04/06 09:07:23;;;;;;;13.23;8.63;;;;;;;;;;5064157;28;20062;-82
2023/04/06 09:10:08;;;;;;;13.43;7.90;;;;;;;;;;5072450;28;20036;-83
2023/04/06 09:13:03;;;;;;;12.60;8.07;;;;;;;;;;5072915;28;20500;-83
2023/04/06 09:15:58;;;;;;;11.10;7.30;;;;;;;;;;5080558;28;20404;-83
2023/04/06 09:18:46;;;;;;;16.25;8.98;;;;;;;;;;5072785;28;20058;-88
2023/04/06 09:21:31;;;;;;;10.38;7.55;;;;;;;;;;5071195;28;20032;-83
2023/04/06 09:24:20;;;;;;;11.65;7.47;;;;;;;;;;5067315;28;20040;-82
2023/04/06 09:27:08;;;;;;;12.05;8.90;;;;;;;;;;5071580;28;20129;-86
2023/04/06 09:30:03;;;;;;;16.80;9.38;;;;;;;;;;5072668;28;20388;-84
2023/04/06 09:32:51;;;;;;;16.48;8.63;;;;;;;;;;5072748;28;20487;-83
2023/04/06 09:35:36;;;;;;;18.05;10.30;;;;;;;;;;5071267;28;20027;-84
2023/04/06 09:38:21;;;;;;;20.83;11.40;;;;;;;;;;5061008;28;20067;-83
2023/04/06 09:41:05;;;;;;;19.98;10.30;;;;;;;;;;5055658;28;20063;-85
2023/04/06 09:43:51;;;;;;;16.90;10.73;;;;;;;;;;5070862;28;20051;-83
2023/04/06 09:46:42;;;;;;;17.63;10.23;;;;;;;;;;5072585;28;20384;-83
2023/04/06 09:49:28;;;;;;;22.48;11.43;;;;;;;;;;5071560;28;20032;-83
2023/04/06 09:52:13;;;;;;;17.17;11.13;;;;;;;;;;5066395;28;20448;-83
2023/04/06 09:55:00;;;;;;;16.92;11.10;;;;;;;;;;5057439;28;20110;-84
2023/04/06 09:57:44;;;;;;;19.67;12.65;;;;;;;;;;5089078;28;20062;-83
2023/04/06 10:00:30;;;;;;;16.65;10.68;;;;;;;;;;5091802;28;20121;-83
2023/04/06 10:03:18;;;;;;;17.88;10.63;;;;;;;;;;5082662;28;20043;-84
2023/04/06 10:06:04;;;;;;;22.15;12.30;;;;;;;;;;5092300;28;20042;-83
2023/04/06 10:08:50;;;;;;;21.05;11.93;;;;;;;;;;5077049;28;20031;-84
2023/04/06 10:11:35;;;;;;;22.63;12.73;;;;;;;;;;5092492;28;20086;-84
2023/04/06 10:14:20;;;;;;;25.92;13.50;;;;;;;;;;5091827;28;20082;-83
2023/04/06 10:17:05;;;;;;;21.92;13.68;;;;;;;;;;5092135;28;20086;-83
2023/04/06 10:19:50;;;;;;;22.55;13.48;;;;;;;;;;5091797;28;20035;-84
2023/04/06 10:22:41;;;;;;;20.85;13.00;;;;;;;;;;5091642;28;20066;-84
2023/04/06 10:25:29;;;;;;;24.98;13.55;;;;;;;;;;5076338;28;20085;-85
2023/04/06 10:28:13;;;;;;;22.52;13.32;;;;;;;;;;5091669;28;20043;-83
2023/04/06 10:31:02;;;;;;;25.30;14.02;;;;;;;;;;5062052;28;20534;-84
2023/04/06 10:33:57;;;;;;;22.63;14.70;;;;;;;;;;5086008;28;20035;-84
2023/04/06 10:36:42;;;;;;;23.95;13.82;;;;;;;;;;5076640;28;20088;-83
2023/04/06 10:39:26;;;;;;;23.02;12.77;;;;;;;;;;5091197;28;20043;-83
2023/04/06 10:42:11;;;;;;;20.92;12.85;;;;;;;;;;5092205;28;20783;-83
2023/04/06 10:44:56;;;;;;;23.23;13.15;;;;;;;;;;5076695;28;20043;-83
2023/04/06 10:47:41;;;;;;;25.52;12.57;;;;;;;;;;5076227;28;20081;-83
2023/04/06 10:50:30;;;;;;;25.48;14.02;;;;;;;;;;5091171;28;20131;-83
2023/04/06 10:53:21;;;;;;;22.70;13.95;;;;;;;;;;5091349;28;20058;-85
2023/04/06 10:56:11;;;;;;;23.25;14.68;;;;;;;;;;5057665;28;20135;-83
2023/04/06 10:58:56;;;;;;;26.38;15.02;;;;;;;;;;5045263;28;20082;-83
2023/04/06 11:01:46;;;;;;;25.30;14.70;;;;;;;;;;5071133;28;20039;-83
2023/04/06 11:04:30;;;;;;;26.00;15.02;;;;;;;;;;5055497;28;20090;-83
2023/04/06 11:07:23;;;;;;;26.98;15.40;;;;;;;;;;5043714;28;20094;-85
2023/04/06 11:10:08;;;;;;;27.55;15.13;;;;;;;;;;5073462;28;20541;-83
2023/04/06 11:12:54;;;;;;;25.50;15.07;;;;;;;;;;5075549;28;20093;-82
2023/04/06 11:15:39;;;;;;;24.75;14.85;;;;;;;;;;5061875;28;20090;-84
2023/04/06 11:18:23;;;;;;;24.25;15.82;;;;;;;;;;5075639;28;20094;-84
2023/04/06 11:21:10;;;;;;;23.85;15.07;;;;;;;;;;5043539;28;20039;-86
2023/04/06 11:24:04;;;;;;;24.70;15.10;;;;;;;;;;5075080;28;20103;-83
2023/04/06 11:26:50;;;;;;;23.38;15.90;;;;;;;;;;5076324;28;20043;-84
2023/04/06 11:29:37;;;;;;;23.05;15.45;;;;;;;;;;5059324;28;20121;-85
2023/04/06 11:32:23;;;;;;;26.27;16.40;;;;;;;;;;5074813;28;20066;-86
2023/04/06 11:35:08;;;;;;;28.70;17.08;;;;;;;;;;5053877;28;20504;-83
2023/04/06 11:37:53;;;;;;;28.67;18.55;;;;;;;;;;5072273;28;20083;-83
2023/04/06 11:40:37;;;;;;;29.77;17.35;;;;;;;;;;5059359;28;20553;-84
2023/04/06 11:43:30;;;;;;;27.10;18.73;;;;;;;;;;5065036;28;20093;-86
2023/04/06 11:46:19;;;;;;;29.58;18.40;;;;;;;;;;5048688;28;20039;-83
2023/04/06 11:49:04;;;;;;;30.70;18.55;;;;;;;;;;5074556;28;20082;-83
2023/04/06 11:51:48;;;;;;;28.75;17.88;;;;;;;;;;5062836;28;20098;-83
2023/04/06 11:54:34;;;;;;;28.50;18.45;;;;;;;;;;5052472;28;20059;-83
2023/04/06 11:57:19;;;;;;;27.90;17.60;;;;;;;;;;5095040;28;20040;-84
2023/04/06 12:00:04;;;;;;;31.45;18.70;;;;;;;;;;5078863;28;20480;-84
2023/04/06 12:02:49;;;;;;;29.50;18.73;;;;;;;;;;5059330;28;20554;-83
2023/04/06 12:05:34;;;;;;;27.52;17.42;;;;;;;;;;5092909;28;20039;-83
2023/04/06 12:08:19;;;;;;;26.02;17.48;;;;;;;;;;5067776;28;20166;-84
2023/04/06 12:11:06;;;;;;;29.30;18.08;;;;;;;;;;5061774;28;20554;-84
2023/04/06 12:13:51;;;;;;;27.98;17.23;;;;;;;;;;5064669;28;20472;-83
2023/04/06 12:16:36;;;;;;;25.73;15.93;;;;;;;;;;5093811;28;20105;-84
2023/04/06 12:19:23;;;;;;;24.45;16.08;;;;;;;;;;5083152;28;20035;-83
2023/04/06 12:22:08;;;;;;;22.92;16.35;;;;;;;;;;5077965;28;20047;-83
2023/04/06 12:24:52;;;;;;;25.27;16.80;;;;;;;;;;5058878;28;20408;-83
2023/04/06 12:27:37;;;;;;;25.05;17.88;;;;;;;;;;5092209;28;20120;-83
2023/04/06 12:30:21;;;;;;;26.55;16.38;;;;;;;;;;5067106;28;20087;-83
2023/04/06 12:33:06;;;;;;;25.67;17.35;;;;;;;;;;5086161;28;20071;-83
2023/04/06 12:35:51;;;;;;;31.10;17.20;;;;;;;;;;5102761;28;20436;-83
2023/04/06 12:38:37;;;;;;;26.60;16.67;;;;;;;;;;5095820;28;20405;-82
2023/04/06 12:41:23;;;;;;;26.33;16.83;;;;;;;;;;5093535;28;20110;-83
2023/04/06 12:44:07;;;;;;;29.45;16.50;;;;;;;;;;5093600;28;20043;-84
2023/04/06 12:46:52;;;;;;;28.20;17.70;;;;;;;;;;5093727;28;20462;-83
2023/04/06 12:49:36;;;;;;;27.42;16.60;;;;;;;;;;5092556;28;20098;-83
2023/04/06 12:52:21;;;;;;;27.90;16.33;;;;;;;;;;5087593;28;20036;-84
2023/04/06 12:55:06;;;;;;;28.02;15.80;;;;;;;;;;5083098;28;20404;-83
2023/04/06 12:57:51;;;;;;;25.58;16.42;;;;;;;;;;5092867;28;20126;-84
2023/04/06 13:00:36;;;;;;;27.30;16.55;;;;;;;;;;5093255;28;20192;-83
2023/04/06 13:03:22;;;;;;;25.50;16.33;;;;;;;;;;5078255;28;20428;-83
2023/04/06 13:06:08;;;;;;;25.13;15.65;;;;;;;;;;5093614;28;20090;-83
2023/04/06 13:08:52;;;;;;;27.00;17.60;;;;;;;;;;5077570;28;20047;-82
2023/04/06 13:11:38;;;;;;;24.55;16.55;;;;;;;;;;5062860;28;20546;-83
2023/04/06 13:14:23;;;;;;;27.60;16.98;;;;;;;;;;5090748;28;20134;-82
2023/04/06 13:17:08;;;;;;;26.30;15.68;;;;;;;;;;5093016;28;20035;-83
2023/04/06 13:19:52;;;;;;;23.67;14.90;;;;;;;;;;5086045;28;20077;-83
2023/04/06 13:22:40;;;;;;;22.42;15.20;;;;;;;;;;5071024;28;20067;-89
2023/04/06 13:25:24;;;;;;;25.38;14.35;;;;;;;;;;5080344;28;20127;-82
2023/04/06 13:28:09;;;;;;;23.08;14.48;;;;;;;;;;5089665;28;20118;-83
2023/04/06 13:30:55;;;;;;;22.90;14.27;;;;;;;;;;5091609;28;20131;-84
2023/04/06 13:33:40;;;;;;;21.20;14.93;;;;;;;;;;5085971;28;20076;-85
2023/04/06 13:36:26;;;;;;;21.05;14.50;;;;;;;;;;5076431;28;20031;-82
2023/04/06 13:39:11;;;;;;;22.63;15.07;;;;;;;;;;5092606;28;20039;-83
2023/04/06 13:41:56;;;;;;;24.13;14.98;;;;;;;;;;5085024;28;20255;-83
2023/04/06 13:44:41;;;;;;;24.45;14.52;;;;;;;;;;5092171;28;20047;-82
2023/04/06 13:47:25;;;;;;;22.50;13.63;;;;;;;;;;5069486;28;20046;-82
2023/04/06 13:50:10;;;;;;;19.95;14.02;;;;;;;;;;5092450;28;20085;-82
2023/04/06 13:52:56;;;;;;;21.00;14.10;;;;;;;;;;5085893;28;20147;-82
2023/04/06 13:55:40;;;;;;;19.88;13.15;;;;;;;;;;5069802;28;20059;-83
2023/04/06 13:58:25;;;;;;;20.98;13.43;;;;;;;;;;5062000;28;20408;-82
2023/04/06 14:01:10;;;;;;;18.70;13.82;;;;;;;;;;5092503;28;20043;-83
2023/04/06 14:03:54;;;;;;;19.55;13.18;;;;;;;;;;5079614;28;20089;-83
2023/04/06 14:06:39;;;;;;;20.38;12.80;;;;;;;;;;5091641;28;20078;-84
2023/04/06 14:09:24;;;;;;;22.48;13.48;;;;;;;;;;5092290;28;20031;-83
2023/04/06 14:12:09;;;;;;;20.73;12.57;;;;;;;;;;5076715;28;20047;-83
2023/04/06 14:14:53;;;;;;;21.08;13.32;;;;;;;;;;5091466;28;20091;-83
2023/04/06 14:17:38;;;;;;;18.50;11.57;;;;;;;;;;5092171;28;20523;-84
2023/04/06 14:20:23;;;;;;;16.15;11.30;;;;;;;;;;5092244;28;20039;-82
2023/04/06 14:23:07;;;;;;;18.95;11.95;;;;;;;;;;5092022;28;20079;-82
2023/04/06 14:25:52;;;;;;;17.88;11.07;;;;;;;;;;5070132;28;20063;-83
2023/04/06 14:28:37;;;;;;;16.83;11.07;;;;;;;;;;5072014;28;20105;-82
2023/04/06 14:31:22;;;;;;;17.13;10.80;;;;;;;;;;5076704;28;20162;-82
2023/04/06 14:34:07;;;;;;;15.25;10.40;;;;;;;;;;5092123;28;20089;-82
2023/04/06 14:36:52;;;;;;;19.83;12.38;;;;;;;;;;5090425;28;20089;-83
2023/04/06 14:39:36;;;;;;;22.08;13.10;;;;;;;;;;5084496;28;20522;-83
2023/04/06 14:42:23;;;;;;;18.00;11.63;;;;;;;;;;5087993;28;20093;-83
2023/04/06 14:45:08;;;;;;;18.83;11.18;;;;;;;;;;5075701;28;20047;-83
2023/04/06 14:47:53;;;;;;;16.02;11.35;;;;;;;;;;5091344;28;20473;-83
2023/04/06 14:50:37;;;;;;;17.52;11.00;;;;;;;;;;5086095;28;20092;-83
2023/04/06 14:53:26;;;;;;;18.42;11.32;;;;;;;;;;5058512;28;20090;-82
2023/04/06 14:56:12;;;;;;;19.48;10.32;;;;;;;;;;5090965;28;20105;-83
2023/04/06 14:58:57;;;;;;;14.68;9.98;;;;;;;;;;5061844;28;20443;-83
2023/04/06 15:01:42;;;;;;;16.25;10.63;;;;;;;;;;5076171;28;20039;-83
2023/04/06 15:04:27;;;;;;;17.85;10.77;;;;;;;;;;5076292;28;20084;-82
2023/04/06 15:07:11;;;;;;;16.23;10.00;;;;;;;;;;5078553;28;20043;-82
2023/04/06 15:09:55;;;;;;;15.40;10.95;;;;;;;;;;5090923;28;20047;-83
2023/04/06 15:12:40;;;;;;;17.70;12.45;;;;;;;;;;5059875;28;20109;-82
2023/04/06 15:15:24;;;;;;;19.27;10.85;;;;;;;;;;5089933;28;20081;-83
2023/04/06 15:18:10;;;;;;;14.25;9.50;;;;;;;;;;5090968;28;20088;-82
2023/04/06 15:20:54;;;;;;;20.23;9.63;;;;;;;;;;5090705;28;20035;-83
2023/04/06 15:23:39;;;;;;;15.90;9.77;;;;;;;;;;5091219;28;20499;-83
2023/04/06 15:26:25;;;;;;;16.45;10.30;;;;;;;;;;5059697;28;20496;-82
2023/04/06 15:29:10;;;;;;;16.88;10.57;;;;;;;;;;5047205;28;20055;-82
2023/04/06 15:31:54;;;;;;;17.88;10.55;;;;;;;;;;5090590;28;20096;-83
2023/04/06 15:34:39;;;;;;;17.20;10.02;;;;;;;;;;5091239;28;20096;-82
2023/04/06 15:37:24;;;;;;;15.55;10.27;;;;;;;;;;5091178;28;20039;-82
2023/04/06 15:40:13;;;;;;;14.80;10.20;;;;;;;;;;5058944;28;20043;-82
2023/04/06 15:42:57;;;;;;;17.80;10.52;;;;;;;;;;5045473;28;20092;-84
2023/04/06 15:45:42;;;;;;;16.90;10.57;;;;;;;;;;5065301;28;20101;-84
2023/04/06 15:48:30;;;;;;;16.40;9.65;;;;;;;;;;5081509;28;20051;-82
2023/04/06 15:51:16;;;;;;;15.25;10.50;;;;;;;;;;5090225;28;20038;-83
2023/04/06 15:54:00;;;;;;;15.77;10.18;;;;;;;;;;5090247;28;20042;-82
2023/04/06 15:56:45;;;;;;;17.80;11.20;;;;;;;;;;5092867;28;20128;-83
2023/04/06 15:59:29;;;;;;;17.67;11.40;;;;;;;;;;5094895;28;20039;-83
2023/04/06 16:02:14;;;;;;;18.48;12.10;;;;;;;;;;5082172;28;20075;-83
2023/04/06 16:05:02;;;;;;;19.65;13.30;;;;;;;;;;5093975;28;20072;-82
2023/04/06 16:07:47;;;;;;;21.58;13.45;;;;;;;;;;5094753;28;20039;-83
2023/04/06 16:10:32;;;;;;;21.85;13.77;;;;;;;;;;5080897;28;20085;-83
2023/04/06 16:13:17;;;;;;;24.00;13.45;;;;;;;;;;5093886;28;20109;-82